Airfield :
LOGIN :

Register | Disclaimer

   EN    FR    IT 

 










Legend :    VFR   Marginal VFR   IFR   Intensive IFR   Very Intensive IFR
Visi :
Ceiling :
>= 8 km
>= 3000ft
5 to 8 km
1000 to 3000 ft
1500m to 5 km
500 to 1000 ft
800 to 1500m
200 to 500 ft
< 800m
< 200 ft
Symbols :   Thunderstorms  Fog  Heavy snow  Heavy precipitations  Wind > 20 kt
SIGMETs :     Misc.  Thunderstorms  Icing  Turbulence  Mountain Waves  Volcanic Ashes






- Airport Elevation : 28 ft
- IATA code : SOZ


LFKS - Solenzara

CURRENT METAR :
  • 271900Z AUTO 30002KT 9999 ////// 13/13 Q1017

EXPIRED METARs :
  • 271830Z AUTO 28002KT 9999 ////// 13/13 Q1017
  • 271800Z AUTO 00000KT 9999 ////// 14/13 Q1017
  • 271730Z AUTO 00000KT 9999 -RA ////// 14/13 Q1017
  • 271700Z AUTO 34005KT 5000 RA BR ////// 14/13 Q1017
  • 271630Z AUTO 36003KT 9999 ////// 14/13 Q1017

TAF TAF LFKS
Valid from the 27 at 15:00 until the 28 at 15:00 UTC


271400Z 2715/2815 28005KT 9999 BKN020 OVC030
TEMPO 2715/2815 3000 SHRA BKN015CB
PROB30
TEMPO 2715/2815 TSRA SCT005 BKN010 BKN015CB



MET'MAP, your aeronautical weather chart ! - Copyright ORBIFLY December 2007 - Disclaimer

ORBIFLY MET'MAP TEAM :

Programming & Development : Alexandra Zaïnal
Concept & original design : Baudouin d'Aumeries
Assistance for programming : Marc-Olivier Méhu
Technical & hardware support : Manuel Goepfert

Contact : metmap@orbifly.com




SOURCES & CREDITS :

   NOAA